createdAt,value
2022-08-01T00:00:46.249Z,65.78
2022-08-01T00:03:12.708Z,65.58
2022-08-01T00:05:39.461Z,65.77
2022-08-01T00:08:05.964Z,65.74
2022-08-01T00:10:32.576Z,65.57
2022-08-01T00:13:02.732Z,65.68
2022-08-01T00:15:29.240Z,65.74
2022-08-01T00:17:56.995Z,65.81
2022-08-01T00:20:23.540Z,66.13
2022-08-01T00:22:50.186Z,66.34
2022-08-01T00:25:16.730Z,66.33
2022-08-01T00:27:43.237Z,66.31
2022-08-01T00:30:14.594Z,66.36
2022-08-01T00:32:42.281Z,66.36
2022-08-01T00:35:10.524Z,66.19
2022-08-01T00:37:37.013Z,66.20
2022-08-01T00:40:04.133Z,66.30
2022-08-01T00:42:30.601Z,66.40
2022-08-01T00:44:58.033Z,66.25
2022-08-01T00:47:24.507Z,66.71
2022-08-01T00:49:51.031Z,66.65
2022-08-01T00:52:19.051Z,66.95
2022-08-01T00:54:46.418Z,66.66
2022-08-01T00:57:13.183Z,66.71
2022-08-01T00:59:41.826Z,66.95
2022-08-01T01:02:14.642Z,67.13
2022-08-01T01:04:41.959Z,67.02
2022-08-01T01:07:17.929Z,67.23
2022-08-01T01:09:55.111Z,67.17
2022-08-01T01:12:28.596Z,67.25
2022-08-01T01:14:59.855Z,67.33
2022-08-01T01:17:51.039Z,67.82
2022-08-01T01:20:19.545Z,67.59
2022-08-01T01:22:58.582Z,67.63
2022-08-01T01:25:40.978Z,67.68
2022-08-01T01:28:16.006Z,67.63
2022-08-01T01:30:48.431Z,67.63
2022-08-01T01:33:16.582Z,67.39
2022-08-01T01:35:49.663Z,67.50
2022-08-01T01:38:19.507Z,67.47
2022-08-01T01:40:47.657Z,67.33
2022-08-01T01:43:16.291Z,67.43
2022-08-01T01:45:46.333Z,67.36
2022-08-01T01:48:15.564Z,67.31
2022-08-01T01:50:43.697Z,67.24
2022-08-01T01:53:15.106Z,67.16
2022-08-01T01:55:49.403Z,67.19
2022-08-01T01:58:18.374Z,67.03
2022-08-01T02:00:49.107Z,67.05
2022-08-01T02:03:19.501Z,66.97
2022-08-01T02:05:46.961Z,66.87
2022-08-01T02:08:16.180Z,66.91
2022-08-01T02:10:45.222Z,66.89
2022-08-01T02:13:11.766Z,66.70
2022-08-01T02:15:38.398Z,66.68
2022-08-01T02:18:26.385Z,66.72
2022-08-01T02:20:55.267Z,66.62
2022-08-01T02:23:23.770Z,66.66
2022-08-01T02:26:09.880Z,66.50
2022-08-01T02:28:44.395Z,66.55
2022-08-01T02:31:17.473Z,66.63
2022-08-01T02:33:50.924Z,66.51
2022-08-01T02:36:31.420Z,66.65
2022-08-01T02:39:01.389Z,66.55
2022-08-01T02:41:30.988Z,66.74
2022-08-01T02:44:00.121Z,66.57
2022-08-01T02:46:32.918Z,66.61
2022-08-01T02:49:03.657Z,66.70
2022-08-01T02:51:31.876Z,66.75
2022-08-01T02:53:59.835Z,66.74
2022-08-01T02:56:28.008Z,66.59
2022-08-01T02:58:55.238Z,66.77
2022-08-01T03:01:23.456Z,66.67
2022-08-01T03:03:53.776Z,66.48
2022-08-01T03:06:21.872Z,66.61
2022-08-01T03:08:49.914Z,66.82
2022-08-01T03:11:17.224Z,66.68
2022-08-01T03:13:47.922Z,66.71
2022-08-01T03:16:16.122Z,66.81
2022-08-01T03:18:45.285Z,66.67
2022-08-01T03:21:14.518Z,66.72
2022-08-01T03:23:43.801Z,66.69
2022-08-01T03:26:11.639Z,66.65
2022-08-01T03:28:39.905Z,66.81
2022-08-01T03:31:06.532Z,66.76
2022-08-01T03:33:33.014Z,66.67
2022-08-01T03:36:02.900Z,66.61
2022-08-01T03:38:33.887Z,66.68
2022-08-01T03:41:07.480Z,66.69
2022-08-01T03:43:38.689Z,66.71
2022-08-01T03:46:08.237Z,66.63
2022-08-01T03:48:40.209Z,66.57
2022-08-01T03:51:08.131Z,66.74
2022-08-01T03:53:35.641Z,66.64
2022-08-01T03:56:05.096Z,66.61
2022-08-01T03:58:31.954Z,66.68
2022-08-01T04:00:59.075Z,66.66
2022-08-01T04:03:26.623Z,66.52
2022-08-01T04:05:53.119Z,66.82
2022-08-01T04:08:19.815Z,66.71
2022-08-01T04:10:46.331Z,66.60
2022-08-01T04:13:18.102Z,66.60
2022-08-01T04:15:45.020Z,66.57
2022-08-01T04:18:11.475Z,66.59
2022-08-01T04:20:37.948Z,66.65
2022-08-01T04:23:04.507Z,66.68
2022-08-01T04:25:35.434Z,66.62
2022-08-01T04:28:04.779Z,66.65
2022-08-01T04:30:36.639Z,66.52
2022-08-01T04:33:07.550Z,66.67
2022-08-01T04:36:03.339Z,66.53
2022-08-01T04:38:26.512Z,66.57
2022-08-01T04:40:54.892Z,66.53
2022-08-01T04:43:22.404Z,66.44
2022-08-01T04:45:52.197Z,66.47
2022-08-01T04:48:20.145Z,66.37
2022-08-01T04:50:49.591Z,66.59
2022-08-01T04:53:17.332Z,66.29
2022-08-01T04:55:44.272Z,66.34
2022-08-01T04:58:13.272Z,66.49
2022-08-01T05:00:42.730Z,66.56
2022-08-01T05:03:10.554Z,66.42
2022-08-01T05:05:37.016Z,66.31
2022-08-01T05:08:03.808Z,66.52
2022-08-01T05:10:30.290Z,66.45
2022-08-01T05:12:56.722Z,66.50
2022-08-01T05:15:23.428Z,66.46
2022-08-01T05:17:49.931Z,66.65
2022-08-01T05:20:17.693Z,66.61
2022-08-01T05:22:44.118Z,66.54
2022-08-01T05:25:10.668Z,66.56
2022-08-01T05:27:39.208Z,66.48
2022-08-01T05:30:06.919Z,66.31
2022-08-01T05:32:33.436Z,66.46
2022-08-01T05:35:00.072Z,66.52
2022-08-01T05:37:27.829Z,66.32
2022-08-01T05:39:54.402Z,66.49
2022-08-01T05:42:21.264Z,66.33
2022-08-01T05:44:47.764Z,66.32
2022-08-01T05:47:14.237Z,66.52
2022-08-01T05:49:40.716Z,66.40
2022-08-01T05:52:07.609Z,66.59
2022-08-01T05:54:35.679Z,66.67
2022-08-01T05:57:02.112Z,66.52
2022-08-01T05:59:28.766Z,66.52
2022-08-01T06:01:55.411Z,66.62
2022-08-01T06:04:21.908Z,66.57
2022-08-01T06:06:48.719Z,66.65
2022-08-01T06:09:15.176Z,66.63
2022-08-01T06:11:43.028Z,66.62
2022-08-01T06:14:09.508Z,66.45
2022-08-01T06:16:35.993Z,66.67
2022-08-01T06:19:02.521Z,66.62
2022-08-01T06:21:29.013Z,66.76
2022-08-01T06:23:55.594Z,66.85
2022-08-01T06:26:22.083Z,66.85
2022-08-01T06:28:49.875Z,66.77
2022-08-01T06:31:16.345Z,66.86
2022-08-01T06:33:42.768Z,66.91
2022-08-01T06:36:09.310Z,66.69
2022-08-01T06:38:35.980Z,66.90
2022-08-01T06:41:02.482Z,66.87
2022-08-01T06:43:29.010Z,66.93
2022-08-01T06:45:56.693Z,66.76
2022-08-01T06:48:23.247Z,66.95
2022-08-01T06:50:49.747Z,66.76
2022-08-01T06:53:16.195Z,66.90
2022-08-01T06:55:42.679Z,66.74
2022-08-01T06:58:09.130Z,66.82
2022-08-01T07:00:35.747Z,66.61
2022-08-01T07:03:03.674Z,66.63
2022-08-01T07:05:30.163Z,66.74
2022-08-01T07:07:56.652Z,66.71
2022-08-01T07:10:23.410Z,66.87
2022-08-01T07:12:49.887Z,66.73
2022-08-01T07:15:16.519Z,66.66
2022-08-01T07:17:43.686Z,66.64
2022-08-01T07:20:13.908Z,66.68
2022-08-01T07:22:43.492Z,66.69
2022-08-01T07:25:10.255Z,66.48
2022-08-01T07:27:37.420Z,66.48
2022-08-01T07:30:04.995Z,66.43
2022-08-01T07:32:31.485Z,66.53
2022-08-01T07:34:58.006Z,66.53
2022-08-01T07:37:46.304Z,66.58
2022-08-01T07:40:14.687Z,66.45
2022-08-01T07:42:41.308Z,66.35
2022-08-01T07:45:08.561Z,66.44
2022-08-01T07:47:35.200Z,66.33
2022-08-01T07:50:02.242Z,66.56
2022-08-01T07:52:30.264Z,66.26
2022-08-01T07:54:57.338Z,66.27
2022-08-01T07:57:23.898Z,66.36
2022-08-01T07:59:50.527Z,66.34
2022-08-01T08:02:17.243Z,66.27
2022-08-01T08:04:48.663Z,66.15
2022-08-01T08:07:16.025Z,66.18
2022-08-01T08:09:43.767Z,66.24
2022-08-01T08:12:10.797Z,66.30
2022-08-01T08:14:37.406Z,66.39
2022-08-01T08:17:04.026Z,66.31
2022-08-01T08:19:38.553Z,66.30
2022-08-01T08:22:06.106Z,66.13
2022-08-01T08:24:32.773Z,65.95
2022-08-01T08:27:02.107Z,66.21
2022-08-01T08:29:30.121Z,66.10
2022-08-01T08:31:57.474Z,65.97
2022-08-01T08:34:24.224Z,65.99
2022-08-01T08:36:50.981Z,66.02
2022-08-01T08:39:19.803Z,65.99
2022-08-01T08:41:49.414Z,65.98
2022-08-01T08:44:19.280Z,65.81
2022-08-01T08:46:47.658Z,65.66
2022-08-01T08:49:19.392Z,65.36
2022-08-01T08:51:49.583Z,65.18
2022-08-01T08:54:17.841Z,65.12
2022-08-01T08:56:45.971Z,65.04
2022-08-01T08:59:13.211Z,65.18
2022-08-01T09:01:41.755Z,65.08
2022-08-01T09:04:08.353Z,65.05
2022-08-01T09:06:35.088Z,64.45
2022-08-01T09:09:01.886Z,64.32
2022-08-01T09:11:29.297Z,64.08
2022-08-01T09:14:09.191Z,63.89
2022-08-01T09:16:37.822Z,63.83
2022-08-01T09:19:16.062Z,63.71
2022-08-01T09:22:00.616Z,63.45
2022-08-01T09:24:30.505Z,63.31
2022-08-01T09:26:58.549Z,63.22
2022-08-01T09:29:36.202Z,63.34
2022-08-01T09:32:06.803Z,63.13
2022-08-01T09:34:34.743Z,63.10
2022-08-01T09:37:02.789Z,62.93
2022-08-01T09:39:31.333Z,62.70
2022-08-01T09:41:59.767Z,62.75
2022-08-01T09:44:42.336Z,62.31
2022-08-01T09:47:09.952Z,62.03
2022-08-01T09:49:50.752Z,61.88
2022-08-01T09:52:20.629Z,61.61
2022-08-01T09:54:56.162Z,61.62
2022-08-01T09:57:22.746Z,61.49
2022-08-01T10:00:00.737Z,61.35
2022-08-01T10:02:32.248Z,61.42
2022-08-01T10:05:03.783Z,61.18
2022-08-01T10:07:42.720Z,61.03
2022-08-01T10:10:12.691Z,60.96
2022-08-01T10:12:44.425Z,61.04
2022-08-01T10:15:15.280Z,61.17
2022-08-01T10:17:50.361Z,61.40
2022-08-01T10:20:29.015Z,61.48
2022-08-01T10:23:00.294Z,61.78
2022-08-01T10:25:42.417Z,61.73
2022-08-01T10:28:14.893Z,61.81
2022-08-01T10:30:45.419Z,61.86
2022-08-01T10:33:19.885Z,61.78
2022-08-01T10:36:01.279Z,61.48
2022-08-01T10:38:28.334Z,61.48
2022-08-01T10:40:57.835Z,61.66
2022-08-01T10:43:24.309Z,61.50
2022-08-01T10:45:51.902Z,61.42
2022-08-01T10:48:23.227Z,60.79
2022-08-01T10:50:54.872Z,60.79
2022-08-01T10:53:31.253Z,60.93
2022-08-01T10:56:09.281Z,60.62
2022-08-01T10:58:42.941Z,60.81
2022-08-01T11:01:17.052Z,60.55
2022-08-01T11:03:57.192Z,60.67
2022-08-01T11:06:36.036Z,60.75
2022-08-01T11:09:06.215Z,60.52
2022-08-01T11:11:53.527Z,60.67
2022-08-01T11:14:26.160Z,60.37
2022-08-01T11:16:53.194Z,60.54
2022-08-01T11:19:19.883Z,60.67
2022-08-01T11:22:01.601Z,60.60
2022-08-01T11:24:57.954Z,60.72
2022-08-01T11:27:27.829Z,60.62
2022-08-01T11:30:22.948Z,60.59
2022-08-01T11:33:10.415Z,60.60
2022-08-01T11:35:38.912Z,60.24
2022-08-01T11:38:24.071Z,59.99
2022-08-01T11:41:10.786Z,60.07
2022-08-01T11:43:55.355Z,60.06
2022-08-01T11:46:47.934Z,60.11
2022-08-01T11:49:23.923Z,59.87
2022-08-01T11:51:58.338Z,59.78
2022-08-01T11:54:35.081Z,59.86
2022-08-01T11:57:06.035Z,60.05
2022-08-01T11:59:41.046Z,59.96
2022-08-01T12:02:19.291Z,59.96
2022-08-01T12:04:59.477Z,59.95
2022-08-01T12:07:28.114Z,60.19
2022-08-01T12:10:00.002Z,59.78
2022-08-01T12:12:26.527Z,59.78
2022-08-01T12:14:57.309Z,59.67
2022-08-01T12:17:38.827Z,59.78
2022-08-01T12:20:08.049Z,59.90
2022-08-01T12:22:35.084Z,59.78
2022-08-01T12:25:10.992Z,59.92
2022-08-01T12:27:39.419Z,59.88
2022-08-01T12:30:09.818Z,60.05
2022-08-01T12:32:38.619Z,59.89
2022-08-01T12:35:07.657Z,59.91
2022-08-01T12:37:36.722Z,59.88
2022-08-01T12:40:10.750Z,59.82
2022-08-01T12:42:37.947Z,59.98
2022-08-01T12:45:05.026Z,59.93
2022-08-01T12:47:33.001Z,60.08
2022-08-01T12:49:59.739Z,60.15
2022-08-01T12:52:27.239Z,60.42
2022-08-01T12:55:03.201Z,60.43
2022-08-01T12:57:33.693Z,60.43
2022-08-01T13:00:11.171Z,60.47
2022-08-01T13:02:39.651Z,60.33
2022-08-01T13:05:07.381Z,60.42
2022-08-01T13:07:45.359Z,60.49
2022-08-01T13:10:13.645Z,60.44
2022-08-01T13:12:40.735Z,60.41
2022-08-01T13:15:20.718Z,60.45
2022-08-01T13:17:48.866Z,60.68
2022-08-01T13:20:24.368Z,60.58
2022-08-01T13:22:51.041Z,60.44
2022-08-01T13:25:19.797Z,60.43
2022-08-01T13:27:53.608Z,60.38
2022-08-01T13:30:21.730Z,60.39
2022-08-01T13:32:59.977Z,60.22
2022-08-01T13:35:27.238Z,60.01
2022-08-01T13:37:54.114Z,59.90
2022-08-01T13:40:25.216Z,60.18
2022-08-01T13:42:51.720Z,60.14
2022-08-01T13:45:18.256Z,59.96
2022-08-01T13:48:11.806Z,59.85
2022-08-01T13:50:36.912Z,59.91
2022-08-01T13:53:03.454Z,59.70
2022-08-01T13:55:34.721Z,59.73
2022-08-01T13:58:02.280Z,59.83
2022-08-01T14:00:28.962Z,59.67
2022-08-01T14:02:55.420Z,59.68
2022-08-01T14:05:21.912Z,59.66
2022-08-01T14:07:49.706Z,59.56
2022-08-01T14:10:18.649Z,59.53
2022-08-01T14:12:46.611Z,59.52
2022-08-01T14:15:14.545Z,59.62
2022-08-01T14:17:47.706Z,59.76
2022-08-01T14:20:14.680Z,59.83
2022-08-01T14:22:41.272Z,59.71
2022-08-01T14:25:09.625Z,59.64
2022-08-01T14:27:36.315Z,59.61
2022-08-01T14:30:04.244Z,59.64
2022-08-01T14:32:31.019Z,59.58
2022-08-01T14:34:57.501Z,59.54
2022-08-01T14:37:28.621Z,59.58
2022-08-01T14:39:56.314Z,59.56
2022-08-01T14:42:24.141Z,58.96
2022-08-01T14:44:50.696Z,59.10
2022-08-01T14:47:21.428Z,59.15
2022-08-01T14:49:48.988Z,59.05
2022-08-01T14:52:15.622Z,59.07
2022-08-01T14:54:42.145Z,58.96
2022-08-01T14:57:08.662Z,59.00
2022-08-01T14:59:36.441Z,58.86
2022-08-01T15:02:03.609Z,58.88
2022-08-01T15:04:30.287Z,58.86
2022-08-01T15:06:56.786Z,58.88
2022-08-01T15:09:23.267Z,58.91
2022-08-01T15:11:49.749Z,58.90
2022-08-01T15:14:16.237Z,58.88
2022-08-01T15:16:43.958Z,59.12
2022-08-01T15:19:10.447Z,59.33
2022-08-01T15:21:41.908Z,59.42
2022-08-01T15:24:09.333Z,59.63
2022-08-01T15:26:35.970Z,59.70
2022-08-01T15:29:02.435Z,59.92
2022-08-01T15:31:28.953Z,59.61
2022-08-01T15:33:56.866Z,59.77
2022-08-01T15:36:25.773Z,59.66
2022-08-01T15:38:52.993Z,59.91
2022-08-01T15:41:19.490Z,59.79
2022-08-01T15:43:46.040Z,59.94
2022-08-01T15:46:22.283Z,59.88
2022-08-01T15:48:48.825Z,59.82
2022-08-01T15:51:16.706Z,60.03
2022-08-01T15:53:43.278Z,60.09
2022-08-01T15:56:09.748Z,60.03
2022-08-01T15:58:36.288Z,60.05
2022-08-01T16:01:02.887Z,60.02
2022-08-01T16:03:29.471Z,59.99
2022-08-01T16:05:56.145Z,60.11
2022-08-01T16:08:24.124Z,60.17
2022-08-01T16:10:50.558Z,60.18
2022-08-01T16:13:17.245Z,60.39
2022-08-01T16:15:43.868Z,60.50
2022-08-01T16:18:11.634Z,60.50
2022-08-01T16:20:44.411Z,60.59
2022-08-01T16:23:12.031Z,60.58
2022-08-01T16:25:39.814Z,60.73
2022-08-01T16:28:06.564Z,60.75
2022-08-01T16:30:33.066Z,60.84
2022-08-01T16:33:01.354Z,60.86
2022-08-01T16:35:36.208Z,61.01
2022-08-01T16:38:03.791Z,60.75
2022-08-01T16:40:30.482Z,60.88
2022-08-01T16:42:58.703Z,60.79
2022-08-01T16:45:25.428Z,60.73
2022-08-01T16:47:52.046Z,60.99
2022-08-01T16:50:18.727Z,60.96
2022-08-01T16:52:54.566Z,61.04
2022-08-01T16:55:22.529Z,60.99
2022-08-01T16:57:49.021Z,60.92
2022-08-01T17:00:20.895Z,60.82
2022-08-01T17:02:47.966Z,60.82
2022-08-01T17:05:14.504Z,61.07
2022-08-01T17:07:41.014Z,60.71
2022-08-01T17:10:08.411Z,60.71
2022-08-01T17:12:35.071Z,60.47
2022-08-01T17:15:01.672Z,60.49
2022-08-01T17:17:29.409Z,60.28
2022-08-01T17:19:55.869Z,60.45
2022-08-01T17:22:22.390Z,60.06
2022-08-01T17:24:48.913Z,60.09
2022-08-01T17:27:15.601Z,59.94
2022-08-01T17:29:44.067Z,60.02
2022-08-01T17:32:11.357Z,59.80
2022-08-01T17:34:39.233Z,59.82
2022-08-01T17:37:06.316Z,59.68
2022-08-01T17:39:37.777Z,59.54
2022-08-01T17:42:06.611Z,59.99
2022-08-01T17:44:33.184Z,59.64
2022-08-01T17:46:59.717Z,59.63
2022-08-01T17:49:52.220Z,59.42
2022-08-01T17:52:13.911Z,59.19
2022-08-01T17:54:41.593Z,59.26
2022-08-01T17:57:08.623Z,59.43
2022-08-01T17:59:35.537Z,59.21
2022-08-01T18:02:02.128Z,59.22
2022-08-01T18:04:31.146Z,59.13
2022-08-01T18:07:00.549Z,59.17
2022-08-01T18:09:28.557Z,59.08
2022-08-01T18:11:58.719Z,59.04
2022-08-01T18:14:37.896Z,58.92
2022-08-01T18:17:08.467Z,59.08
2022-08-01T18:19:37.849Z,58.87
2022-08-01T18:22:05.099Z,58.89
2022-08-01T18:24:32.843Z,58.92
2022-08-01T18:26:59.320Z,58.96
2022-08-01T18:29:47.971Z,59.02
2022-08-01T18:32:12.285Z,58.99
2022-08-01T18:34:38.857Z,58.66
2022-08-01T18:37:05.648Z,58.64
2022-08-01T18:39:35.820Z,58.60
2022-08-01T18:42:02.573Z,58.68
2022-08-01T18:44:29.092Z,58.80
2022-08-01T18:46:55.746Z,58.68
2022-08-01T18:49:22.626Z,58.59
2022-08-01T18:51:49.252Z,58.70
2022-08-01T18:54:16.481Z,58.60
2022-08-01T18:56:45.134Z,58.68
2022-08-01T18:59:12.211Z,58.63
2022-08-01T19:01:38.755Z,58.60
2022-08-01T19:04:05.366Z,58.78
2022-08-01T19:06:32.050Z,58.48
2022-08-01T19:09:02.263Z,58.42
2022-08-01T19:11:29.521Z,58.41
2022-08-01T19:13:57.570Z,58.31
2022-08-01T19:16:24.238Z,58.39
2022-08-01T19:18:50.752Z,58.26
2022-08-01T19:21:17.394Z,58.23
2022-08-01T19:23:43.971Z,58.15
2022-08-01T19:26:11.112Z,58.21
2022-08-01T19:28:43.644Z,58.33
2022-08-01T19:31:12.849Z,58.25
2022-08-01T19:33:40.608Z,58.53
2022-08-01T19:36:08.638Z,58.22
2022-08-01T19:38:36.039Z,58.23
2022-08-01T19:41:03.764Z,58.27
2022-08-01T19:43:32.588Z,58.06
2022-08-01T19:46:02.959Z,58.28
2022-08-01T19:48:31.177Z,58.28
2022-08-01T19:50:59.446Z,58.20
2022-08-01T19:53:26.096Z,58.29
2022-08-01T19:55:53.607Z,58.35
2022-08-01T19:58:27.254Z,58.26
2022-08-01T20:00:54.685Z,58.24
2022-08-01T20:03:22.547Z,58.29
2022-08-01T20:05:51.201Z,58.36
2022-08-01T20:08:19.476Z,58.23
2022-08-01T20:10:47.258Z,58.37
2022-08-01T20:13:13.834Z,58.19
2022-08-01T20:15:42.912Z,58.29
2022-08-01T20:18:09.385Z,58.30
2022-08-01T20:20:36.816Z,58.19
2022-08-01T20:23:09.080Z,58.16
2022-08-01T20:25:39.369Z,58.36
2022-08-01T20:28:08.863Z,58.18
2022-08-01T20:30:35.353Z,58.20
2022-08-01T20:33:01.834Z,58.16
2022-08-01T20:35:52.297Z,58.00
2022-08-01T20:38:17.132Z,58.18
2022-08-01T20:40:43.816Z,58.20
2022-08-01T20:43:11.987Z,58.31
2022-08-01T20:45:39.037Z,58.43
2022-08-01T20:48:07.380Z,58.35
2022-08-01T20:50:53.815Z,58.36
2022-08-01T20:53:22.072Z,58.46
2022-08-01T20:55:54.396Z,58.38
2022-08-01T20:58:33.732Z,58.46
2022-08-01T21:01:02.689Z,58.49
2022-08-01T21:03:39.493Z,58.37
2022-08-01T21:06:11.632Z,58.38
2022-08-01T21:08:42.352Z,58.41
2022-08-01T21:11:15.832Z,58.49
2022-08-01T21:13:44.473Z,58.44
2022-08-01T21:16:24.425Z,58.45
2022-08-01T21:19:18.162Z,58.39
2022-08-01T21:21:50.398Z,58.54
2022-08-01T21:24:22.265Z,58.39
2022-08-01T21:26:50.083Z,58.63
2022-08-01T21:29:18.490Z,58.66
2022-08-01T21:31:46.232Z,58.49
2022-08-01T21:34:15.528Z,58.52
2022-08-01T21:36:45.201Z,58.31
2022-08-01T21:39:12.415Z,58.20
2022-08-01T21:41:56.635Z,58.15
2022-08-01T21:44:29.828Z,58.13
2022-08-01T21:46:58.290Z,58.02
2022-08-01T21:49:24.863Z,57.76
2022-08-01T21:51:57.681Z,57.84
2022-08-01T21:54:29.230Z,57.93
2022-08-01T21:57:04.956Z,57.74
2022-08-01T21:59:41.939Z,57.66
2022-08-01T22:02:11.368Z,57.81
2022-08-01T22:04:42.298Z,57.73
2022-08-01T22:07:10.127Z,57.80
2022-08-01T22:09:38.334Z,57.95
2022-08-01T22:12:07.394Z,57.76
2022-08-01T22:14:40.188Z,57.85
2022-08-01T22:17:07.701Z,57.68
2022-08-01T22:19:44.770Z,57.52
2022-08-01T22:22:44.227Z,57.51
2022-08-01T22:24:59.874Z,57.35
2022-08-01T22:28:07.828Z,57.31
2022-08-01T22:30:16.671Z,57.35
2022-08-01T22:32:45.151Z,57.17
2022-08-01T22:35:32.907Z,57.39
2022-08-01T22:37:59.399Z,57.30
2022-08-01T22:40:28.032Z,57.21
2022-08-01T22:42:59.901Z,57.34
2022-08-01T22:45:38.842Z,57.41
2022-08-01T22:48:13.836Z,57.51
2022-08-01T22:50:45.091Z,57.35
2022-08-01T22:53:21.993Z,57.21
2022-08-01T22:55:58.796Z,57.05
2022-08-01T22:58:30.259Z,57.12
2022-08-01T23:01:00.717Z,57.08
2022-08-01T23:03:29.880Z,57.11
2022-08-01T23:06:02.942Z,57.12
2022-08-01T23:08:31.227Z,57.10
2022-08-01T23:10:59.862Z,57.20
2022-08-01T23:13:28.792Z,57.12
2022-08-01T23:15:56.850Z,57.24
2022-08-01T23:18:23.560Z,56.90
2022-08-01T23:20:50.943Z,56.86
2022-08-01T23:23:18.487Z,56.86
2022-08-01T23:25:59.059Z,57.05
2022-08-01T23:28:27.854Z,56.80
2022-08-01T23:30:55.362Z,56.77
2022-08-01T23:33:22.137Z,56.71
2022-08-01T23:35:48.633Z,56.62
2022-08-01T23:38:15.222Z,56.71
2022-08-01T23:40:42.053Z,56.52
2022-08-01T23:43:16.816Z,56.52
2022-08-01T23:46:03.622Z,56.74
2022-08-01T23:48:33.226Z,56.64
2022-08-01T23:50:59.936Z,56.68
2022-08-01T23:53:30.554Z,56.81
2022-08-01T23:55:58.076Z,56.76
2022-08-01T23:58:24.592Z,56.65
